METAR Data
IDs: Format: Raw Decoded Include TAF

Data at: 0250 UTC 25 Feb 2021

EBCI 250220Z 20010KT CAVOK 11/06 Q1026 NOSIG